createdAt,value
2022-09-03T00:00:13.374Z,0.20
2022-09-03T00:01:12.984Z,0.20
2022-09-03T00:02:13.021Z,0.40
2022-09-03T00:03:13.034Z,0.30
2022-09-03T00:04:12.933Z,0.10
2022-09-03T00:05:13.360Z,0.20
2022-09-03T00:06:12.915Z,0.20
2022-09-03T00:07:12.904Z,0.10
2022-09-03T00:08:12.892Z,0.20
2022-09-03T00:09:12.882Z,0.10
2022-09-03T00:10:12.886Z,0.20
2022-09-03T00:11:13.275Z,0.30
2022-09-03T00:12:12.833Z,0.20
2022-09-03T00:13:12.833Z,0.20
2022-09-03T00:14:12.945Z,0.20
2022-09-03T00:15:12.802Z,0.20
2022-09-03T00:16:13.228Z,0.20
2022-09-03T00:17:12.771Z,0.20
2022-09-03T00:18:12.751Z,0.20
2022-09-03T00:19:12.749Z,0.50
2022-09-03T00:20:12.745Z,0.10
2022-09-03T00:21:13.164Z,0.20
2022-09-03T00:22:12.702Z,0.20
2022-09-03T00:23:12.689Z,0.20
2022-09-03T00:24:14.194Z,0.20
2022-09-03T00:25:12.665Z,0.10
2022-09-03T00:26:13.064Z,0.20
2022-09-03T00:27:12.639Z,0.20
2022-09-03T00:28:12.620Z,0.10
2022-09-03T00:29:12.610Z,0.20
2022-09-03T00:30:12.833Z,0.20
2022-09-03T00:31:12.972Z,0.20
2022-09-03T00:32:12.582Z,0.20
2022-09-03T00:33:12.552Z,0.10
2022-09-03T00:34:12.548Z,0.20
2022-09-03T00:35:12.529Z,0.10
2022-09-03T00:36:12.968Z,0.30
2022-09-03T00:37:15.633Z,0.20
2022-09-03T00:38:12.488Z,0.10
2022-09-03T00:39:12.468Z,0.20
2022-09-03T00:40:12.498Z,0.60
2022-09-03T00:41:12.869Z,0.20
2022-09-03T00:42:12.440Z,0.20
2022-09-03T00:43:12.435Z,0.10
2022-09-03T00:44:12.429Z,0.20
2022-09-03T00:45:12.467Z,0.20
2022-09-03T00:46:12.769Z,0.10
2022-09-03T00:47:12.376Z,0.20
2022-09-03T00:48:12.358Z,0.10
2022-09-03T00:49:13.348Z,0.20
2022-09-03T00:50:12.334Z,0.30
2022-09-03T00:51:12.743Z,0.20
2022-09-03T00:52:12.306Z,0.20
2022-09-03T00:53:12.297Z,0.20
2022-09-03T00:54:12.279Z,0.10
2022-09-03T00:55:12.266Z,0.20
2022-09-03T00:56:12.614Z,0.20
2022-09-03T00:57:12.236Z,0.20
2022-09-03T00:58:12.237Z,0.20
2022-09-03T00:59:12.217Z,0.20
2022-09-03T01:00:12.197Z,0.20
2022-09-03T01:01:12.646Z,0.20
2022-09-03T01:02:12.363Z,0.10
2022-09-03T01:03:12.167Z,0.20
2022-09-03T01:04:12.173Z,0.20
2022-09-03T01:05:12.126Z,0.20
2022-09-03T01:06:12.540Z,0.20
2022-09-03T01:07:12.104Z,0.20
2022-09-03T01:08:12.098Z,0.20
2022-09-03T01:09:12.071Z,0.10
2022-09-03T01:10:12.064Z,0.20
2022-09-03T01:11:12.469Z,0.20
2022-09-03T01:12:12.034Z,0.10
2022-09-03T01:13:12.029Z,0.20
2022-09-03T01:14:12.003Z,0.30
2022-09-03T01:15:11.997Z,0.10
2022-09-03T01:16:12.581Z,0.20
2022-09-03T01:17:11.963Z,0.10
2022-09-03T01:18:11.952Z,0.20
2022-09-03T01:19:11.941Z,0.20
2022-09-03T01:20:11.943Z,0.10
2022-09-03T01:21:12.343Z,0.20
2022-09-03T01:22:11.899Z,0.20
2022-09-03T01:23:11.884Z,0.20
2022-09-03T01:24:11.871Z,0.30
2022-09-03T01:25:11.853Z,0.10
2022-09-03T01:26:12.283Z,0.20
2022-09-03T01:27:11.832Z,0.20
2022-09-03T01:28:11.818Z,0.20
2022-09-03T01:29:11.803Z,0.20
2022-09-03T01:30:11.802Z,0.10
2022-09-03T01:31:12.191Z,0.20
2022-09-03T01:32:11.768Z,0.20
2022-09-03T01:33:11.750Z,0.10
2022-09-03T01:34:11.739Z,0.30
2022-09-03T01:35:11.723Z,0.10
2022-09-03T01:36:12.088Z,0.20
2022-09-03T01:37:11.697Z,0.20
2022-09-03T01:38:11.687Z,0.10
2022-09-03T01:39:11.669Z,0.20
2022-09-03T01:40:11.675Z,0.20
2022-09-03T01:41:11.639Z,0.20
2022-09-03T01:42:11.992Z,0.20
2022-09-03T01:43:11.616Z,0.20
2022-09-03T01:44:11.611Z,0.20
2022-09-03T01:45:11.589Z,0.20
2022-09-03T01:46:11.611Z,0.10
2022-09-03T01:47:13.246Z,0.20
2022-09-03T01:48:11.557Z,0.10
2022-09-03T01:49:11.540Z,0.20
2022-09-03T01:50:11.531Z,0.20
2022-09-03T01:51:11.510Z,0.20
2022-09-03T01:52:11.918Z,0.20
2022-09-03T01:53:11.490Z,0.20
2022-09-03T01:54:20.761Z,0.20
2022-09-03T01:55:12.459Z,0.20
2022-09-03T01:56:11.448Z,0.20
2022-09-03T01:57:12.841Z,0.20
2022-09-03T01:58:12.428Z,0.20
2022-09-03T01:59:11.416Z,0.20
2022-09-03T02:00:11.397Z,0.20
2022-09-03T02:01:11.449Z,0.10
2022-09-03T02:02:11.799Z,0.10
2022-09-03T02:03:11.349Z,0.20
2022-09-03T02:04:11.345Z,0.20
2022-09-03T02:05:11.327Z,0.20
2022-09-03T02:06:11.327Z,0.20
2022-09-03T02:07:11.676Z,0.10
2022-09-03T02:08:11.575Z,0.20
2022-09-03T02:09:11.276Z,0.20
2022-09-03T02:10:11.265Z,0.20
2022-09-03T02:11:11.248Z,0.20
2022-09-03T02:12:11.678Z,0.10
2022-09-03T02:13:11.223Z,0.20
2022-09-03T02:14:11.226Z,0.20
2022-09-03T02:15:11.194Z,0.20
2022-09-03T02:16:11.260Z,0.20
2022-09-03T02:17:11.584Z,0.10
2022-09-03T02:18:11.162Z,0.20
2022-09-03T02:19:11.141Z,0.50
2022-09-03T02:20:11.134Z,0.60
2022-09-03T02:21:11.114Z,0.30
2022-09-03T02:22:11.542Z,0.20
2022-09-03T02:23:11.092Z,0.20
2022-09-03T02:24:11.074Z,0.40
2022-09-03T02:25:11.066Z,0.20
2022-09-03T02:26:11.055Z,0.70
2022-09-03T02:27:11.432Z,0.80
2022-09-03T02:28:17.036Z,0.60
2022-09-03T02:29:12.003Z,0.30
2022-09-03T02:30:11.003Z,0.10
2022-09-03T02:31:11.082Z,0.80
2022-09-03T02:32:11.310Z,0.30
2022-09-03T02:33:10.956Z,0.30
2022-09-03T02:34:10.941Z,0.50
2022-09-03T02:35:10.924Z,2.70
2022-09-03T02:36:10.923Z,0.90
2022-09-03T02:37:11.323Z,2.10
2022-09-03T02:38:10.894Z,4.30
2022-09-03T02:39:10.879Z,3.00
2022-09-03T02:40:10.958Z,2.20
2022-09-03T02:41:10.850Z,4.30
2022-09-03T02:42:11.211Z,1.30
2022-09-03T02:43:10.811Z,5.00
2022-09-03T02:44:10.807Z,2.30
2022-09-03T02:45:10.790Z,2.10
2022-09-03T02:46:10.815Z,2.40
2022-09-03T02:47:11.188Z,1.20
2022-09-03T02:48:10.750Z,1.10
2022-09-03T02:49:10.733Z,3.50
2022-09-03T02:50:10.719Z,1.70
2022-09-03T02:51:13.796Z,3.90
2022-09-03T02:52:11.122Z,2.00
2022-09-03T02:53:10.680Z,0.70
2022-09-03T02:54:10.663Z,1.90
2022-09-03T02:55:10.649Z,1.70
2022-09-03T02:56:10.641Z,5.30
2022-09-03T02:57:10.620Z,4.30
2022-09-03T02:58:11.018Z,6.80
2022-09-03T02:59:10.588Z,9.70
2022-09-03T03:00:10.603Z,7.00
2022-09-03T03:01:10.678Z,8.90
2022-09-03T03:02:10.585Z,5.80
2022-09-03T03:03:10.868Z,4.40
2022-09-03T03:04:10.538Z,7.40
2022-09-03T03:05:10.515Z,6.90
2022-09-03T03:06:10.507Z,10.60
2022-09-03T03:07:10.497Z,11.40
2022-09-03T03:08:10.916Z,7.90
2022-09-03T03:09:10.468Z,7.70
2022-09-03T03:10:10.457Z,3.90
2022-09-03T03:11:10.438Z,16.30
2022-09-03T03:12:10.435Z,21.40
2022-09-03T03:13:10.827Z,13.90
2022-09-03T03:14:10.406Z,15.30
2022-09-03T03:15:10.386Z,12.10
2022-09-03T03:16:10.376Z,8.90
2022-09-03T03:17:10.357Z,10.90
2022-09-03T03:18:10.734Z,13.00
2022-09-03T03:19:10.335Z,11.50
2022-09-03T03:20:10.326Z,8.70
2022-09-03T03:21:10.318Z,7.00
2022-09-03T03:22:10.295Z,8.60
2022-09-03T03:23:10.705Z,9.40
2022-09-03T03:24:10.274Z,6.60
2022-09-03T03:25:10.256Z,4.20
2022-09-03T03:26:10.243Z,8.80
2022-09-03T03:27:10.243Z,8.90
2022-09-03T03:28:10.643Z,12.50
2022-09-03T03:29:10.205Z,10.40
2022-09-03T03:30:10.193Z,8.70
2022-09-03T03:31:10.259Z,9.40
2022-09-03T03:32:10.170Z,9.90
2022-09-03T03:33:10.533Z,9.30
2022-09-03T03:34:10.142Z,10.20
2022-09-03T03:35:10.122Z,7.20
2022-09-03T03:36:10.122Z,7.50
2022-09-03T03:37:10.103Z,11.70
2022-09-03T03:38:10.426Z,7.40
2022-09-03T03:39:11.359Z,9.30
2022-09-03T03:40:10.062Z,11.30
2022-09-03T03:41:10.043Z,11.80
2022-09-03T03:42:10.034Z,8.60
2022-09-03T03:43:10.456Z,9.70
2022-09-03T03:44:10.002Z,13.60
2022-09-03T03:45:09.995Z,9.30
2022-09-03T03:46:10.022Z,10.90
2022-09-03T03:47:09.970Z,11.20
2022-09-03T03:48:10.385Z,11.20
2022-09-03T03:49:09.933Z,19.60
2022-09-03T03:50:09.939Z,20.30
2022-09-03T03:51:09.911Z,17.10
2022-09-03T03:52:09.899Z,28.10
2022-09-03T03:53:10.249Z,26.00
2022-09-03T03:54:09.868Z,28.40
2022-09-03T03:55:09.859Z,31.20
2022-09-03T03:56:09.854Z,25.60
2022-09-03T03:57:09.838Z,32.60
2022-09-03T03:58:11.529Z,25.60
2022-09-03T03:59:09.799Z,35.90
2022-09-03T04:00:10.468Z,26.40
2022-09-03T04:01:09.867Z,32.40
2022-09-03T04:02:09.830Z,26.80
2022-09-03T04:03:09.769Z,38.90
2022-09-03T04:04:10.067Z,33.40
2022-09-03T04:05:09.735Z,30.70
2022-09-03T04:06:09.727Z,34.70
2022-09-03T04:07:09.693Z,29.10
2022-09-03T04:08:09.684Z,27.30
2022-09-03T04:09:10.097Z,32.40
2022-09-03T04:10:09.653Z,30.60
2022-09-03T04:11:09.645Z,48.80
2022-09-03T04:12:09.632Z,52.10
2022-09-03T04:13:09.605Z,50.70
2022-09-03T04:14:09.997Z,65.70
2022-09-03T04:15:09.588Z,64.80
2022-09-03T04:16:09.618Z,62.10
2022-09-03T04:17:09.543Z,58.80
2022-09-03T04:18:09.543Z,68.00
2022-09-03T04:19:09.976Z,66.00
2022-09-03T04:20:09.512Z,67.90
2022-09-03T04:21:09.505Z,72.00
2022-09-03T04:22:09.492Z,63.90
2022-09-03T04:23:09.474Z,55.10
2022-09-03T04:24:09.842Z,70.80
2022-09-03T04:25:09.443Z,67.70
2022-09-03T04:26:09.433Z,58.80
2022-09-03T04:27:09.422Z,45.60
2022-09-03T04:28:09.403Z,53.60
2022-09-03T04:29:09.938Z,61.20
2022-09-03T04:30:09.382Z,61.60
2022-09-03T04:31:09.417Z,64.00
2022-09-03T04:32:09.356Z,56.90
2022-09-03T04:33:09.332Z,64.00
2022-09-03T04:34:10.672Z,37.50
2022-09-03T04:35:09.313Z,37.00
2022-09-03T04:36:09.303Z,37.00
2022-09-03T04:37:09.292Z,33.50
2022-09-03T04:38:09.272Z,38.30
2022-09-03T04:39:09.672Z,37.20
2022-09-03T04:40:09.262Z,39.30
2022-09-03T04:41:09.231Z,32.60
2022-09-03T04:42:09.228Z,20.00
2022-09-03T04:43:09.214Z,22.80
2022-09-03T04:44:09.522Z,31.80
2022-09-03T04:45:09.190Z,26.30
2022-09-03T04:46:16.067Z,28.70
2022-09-03T04:47:10.160Z,42.50
2022-09-03T04:48:09.142Z,29.90
2022-09-03T04:49:09.439Z,27.30
2022-09-03T04:50:09.119Z,23.10
2022-09-03T04:51:09.118Z,14.90
2022-09-03T04:52:09.089Z,17.10
2022-09-03T04:53:09.109Z,16.80
2022-09-03T04:54:09.510Z,21.70
2022-09-03T04:55:09.058Z,13.80
2022-09-03T04:56:09.038Z,15.30
2022-09-03T04:57:09.058Z,13.70
2022-09-03T04:58:09.008Z,10.00
2022-09-03T04:59:09.370Z,10.50
2022-09-03T05:00:08.988Z,16.10
2022-09-03T05:01:09.064Z,16.00
2022-09-03T05:02:09.004Z,11.80
2022-09-03T05:03:08.947Z,11.80
2022-09-03T05:04:09.322Z,13.20
2022-09-03T05:05:08.928Z,19.50
2022-09-03T05:06:08.901Z,9.50
2022-09-03T05:07:08.886Z,18.90
2022-09-03T05:08:08.892Z,17.50
2022-09-03T05:09:09.206Z,10.80
2022-09-03T05:10:08.858Z,11.10
2022-09-03T05:11:08.845Z,15.30
2022-09-03T05:12:08.823Z,11.30
2022-09-03T05:13:08.820Z,6.20
2022-09-03T05:14:09.170Z,6.20
2022-09-03T05:15:08.785Z,5.70
2022-09-03T05:16:08.810Z,10.60
2022-09-03T05:17:08.755Z,9.00
2022-09-03T05:18:08.745Z,10.20
2022-09-03T05:19:09.156Z,6.10
2022-09-03T05:20:08.719Z,9.00
2022-09-03T05:21:08.694Z,7.00
2022-09-03T05:22:08.681Z,13.40
2022-09-03T05:23:08.664Z,7.20
2022-09-03T05:24:08.965Z,7.60
2022-09-03T05:25:08.644Z,9.20
2022-09-03T05:26:08.623Z,13.40
2022-09-03T05:27:08.615Z,5.80
2022-09-03T05:28:08.596Z,7.80
2022-09-03T05:29:09.023Z,9.30
2022-09-03T05:30:08.574Z,3.90
2022-09-03T05:31:08.565Z,4.30
2022-09-03T05:32:08.545Z,3.30
2022-09-03T05:33:08.534Z,4.70
2022-09-03T05:34:08.904Z,4.20
2022-09-03T05:35:08.521Z,2.40
2022-09-03T05:36:08.494Z,3.30
2022-09-03T05:37:08.482Z,2.20
2022-09-03T05:38:08.462Z,3.30
2022-09-03T05:39:08.812Z,2.40
2022-09-03T05:40:08.441Z,2.70
2022-09-03T05:41:15.417Z,4.10
2022-09-03T05:42:15.413Z,5.90
2022-09-03T05:43:15.392Z,3.60
2022-09-03T05:44:08.701Z,3.00
2022-09-03T05:45:08.376Z,1.00
2022-09-03T05:46:15.352Z,1.80
2022-09-03T05:47:15.339Z,2.10
2022-09-03T05:48:16.347Z,2.20
2022-09-03T05:49:08.317Z,1.80
2022-09-03T05:50:08.616Z,0.40
2022-09-03T05:51:08.305Z,1.20
2022-09-03T05:52:08.276Z,2.40
2022-09-03T05:53:08.265Z,8.60
2022-09-03T05:54:08.291Z,7.90
2022-09-03T05:55:12.818Z,8.30
2022-09-03T05:56:08.226Z,6.90
2022-09-03T05:57:08.217Z,6.30
2022-09-03T05:58:08.196Z,6.80
2022-09-03T05:59:08.186Z,8.20
2022-09-03T06:00:08.523Z,6.10
2022-09-03T06:01:08.157Z,3.50
2022-09-03T06:02:08.256Z,2.30
2022-09-03T06:03:08.236Z,2.60
2022-09-03T06:04:08.115Z,0.90
2022-09-03T06:05:08.471Z,1.00
2022-09-03T06:06:08.082Z,0.20
2022-09-03T06:07:08.086Z,0.20
2022-09-03T06:08:08.069Z,1.10
2022-09-03T06:09:08.055Z,1.40
2022-09-03T06:10:08.455Z,1.90
2022-09-03T06:11:08.026Z,0.50
2022-09-03T06:12:08.005Z,1.40
2022-09-03T06:13:08.004Z,2.10
2022-09-03T06:14:07.986Z,1.20
2022-09-03T06:15:08.312Z,1.00
2022-09-03T06:16:08.020Z,0.50
2022-09-03T06:17:07.981Z,0.20
2022-09-03T06:18:07.932Z,0.70
2022-09-03T06:19:07.924Z,1.40
2022-09-03T06:20:08.282Z,0.30
2022-09-03T06:21:07.914Z,1.20
2022-09-03T06:22:07.879Z,1.10
2022-09-03T06:23:07.872Z,1.10
2022-09-03T06:24:07.858Z,1.10
2022-09-03T06:25:08.293Z,1.90
2022-09-03T06:26:07.834Z,0.30
2022-09-03T06:27:07.812Z,0.80
2022-09-03T06:28:07.812Z,2.50
2022-09-03T06:29:07.841Z,3.10
2022-09-03T06:30:08.213Z,2.30
2022-09-03T06:31:07.762Z,1.80
2022-09-03T06:32:07.832Z,1.00
2022-09-03T06:33:07.736Z,0.90
2022-09-03T06:34:07.724Z,0.10
2022-09-03T06:35:08.141Z,0.20
2022-09-03T06:36:08.942Z,0.40
2022-09-03T06:37:07.688Z,0.10
2022-09-03T06:38:07.702Z,0.20
2022-09-03T06:39:08.734Z,0.10
2022-09-03T06:40:07.837Z,0.30
2022-09-03T06:41:07.641Z,0.30
2022-09-03T06:42:07.622Z,0.10
2022-09-03T06:43:07.950Z,0.20
2022-09-03T06:44:07.593Z,0.20
2022-09-03T06:45:07.942Z,0.20
2022-09-03T06:46:07.616Z,0.20
2022-09-03T06:47:07.552Z,0.10
2022-09-03T06:48:07.541Z,0.10
2022-09-03T06:49:07.528Z,0.20
2022-09-03T06:50:07.949Z,0.20
2022-09-03T06:51:07.538Z,0.10
2022-09-03T06:52:07.584Z,0.20
2022-09-03T06:53:07.497Z,0.10
2022-09-03T06:54:07.480Z,0.20
2022-09-03T06:55:07.891Z,0.30
2022-09-03T06:56:07.796Z,0.20
2022-09-03T06:57:07.429Z,0.20
2022-09-03T06:58:07.412Z,0.20
2022-09-03T06:59:07.388Z,0.20
2022-09-03T07:00:07.546Z,0.10
2022-09-03T07:01:07.474Z,0.20
2022-09-03T07:02:07.477Z,0.20
2022-09-03T07:03:07.339Z,0.10
2022-09-03T07:04:07.329Z,0.20
2022-09-03T07:05:07.762Z,0.20
2022-09-03T07:06:07.301Z,0.20
2022-09-03T07:07:07.289Z,0.10
2022-09-03T07:08:07.274Z,0.20
2022-09-03T07:09:07.269Z,0.20
2022-09-03T07:10:07.247Z,0.50
2022-09-03T07:11:07.617Z,0.10
2022-09-03T07:12:07.222Z,0.20
2022-09-03T07:13:07.208Z,0.30
2022-09-03T07:14:07.207Z,0.30
2022-09-03T07:15:07.187Z,0.10
2022-09-03T07:16:07.260Z,0.20
2022-09-03T07:17:07.166Z,0.20
2022-09-03T07:18:07.149Z,0.30
2022-09-03T07:19:07.137Z,0.40
2022-09-03T07:20:07.116Z,0.20
2022-09-03T07:21:07.515Z,0.10
2022-09-03T07:22:07.107Z,0.40
2022-09-03T07:23:07.086Z,0.20
2022-09-03T07:24:07.077Z,0.20
2022-09-03T07:25:07.058Z,0.10
2022-09-03T07:26:07.487Z,0.20
2022-09-03T07:27:07.199Z,0.20
2022-09-03T07:28:07.683Z,0.20
2022-09-03T07:29:06.997Z,0.60
2022-09-03T07:30:06.987Z,0.20
2022-09-03T07:31:07.294Z,0.10
2022-09-03T07:32:07.063Z,0.10
2022-09-03T07:33:14.091Z,0.30
2022-09-03T07:34:13.922Z,0.20
2022-09-03T07:35:17.047Z,0.20
2022-09-03T07:36:14.452Z,0.10
2022-09-03T07:37:13.889Z,0.20
2022-09-03T07:38:13.873Z,0.10
2022-09-03T07:39:06.860Z,0.10
2022-09-03T07:40:06.874Z,0.10
2022-09-03T07:41:07.273Z,0.20
2022-09-03T07:42:06.869Z,0.10
2022-09-03T07:43:06.812Z,0.10
2022-09-03T07:44:06.783Z,0.20
2022-09-03T07:45:06.793Z,0.10
2022-09-03T07:46:07.094Z,0.20
2022-09-03T07:47:06.885Z,0.20
2022-09-03T07:48:06.758Z,0.10
2022-09-03T07:49:06.736Z,0.10
2022-09-03T07:50:06.726Z,0.20
2022-09-03T07:51:06.940Z,0.20
2022-09-03T07:52:06.847Z,0.10
2022-09-03T07:53:07.685Z,0.10
2022-09-03T07:54:06.684Z,0.30
2022-09-03T07:55:06.654Z,0.20
2022-09-03T07:56:07.085Z,0.10
2022-09-03T07:57:06.653Z,0.10
2022-09-03T07:58:06.603Z,0.10
2022-09-03T07:59:06.610Z,0.20
2022-09-03T08:00:06.903Z,0.10
2022-09-03T08:01:07.021Z,0.10
2022-09-03T08:02:08.142Z,0.20
2022-09-03T08:03:06.564Z,0.20
2022-09-03T08:04:06.616Z,0.10
2022-09-03T08:05:06.534Z,0.40
2022-09-03T08:06:06.538Z,0.10
2022-09-03T08:07:19.961Z,0.20
2022-09-03T08:08:15.654Z,0.20
2022-09-03T08:09:16.117Z,0.20
2022-09-03T08:11:37.866Z,0.10
2022-09-03T08:12:48.249Z,0.20
2022-09-03T08:13:47.460Z,0.10
2022-09-03T08:14:45.159Z,0.20
2022-09-03T08:16:46.138Z,0.10
2022-09-03T08:17:46.093Z,0.10
2022-09-03T08:18:46.101Z,0.10
2022-09-03T08:19:46.082Z,0.20
2022-09-03T08:20:46.078Z,0.10
2022-09-03T08:21:46.346Z,0.40
2022-09-03T08:22:54.043Z,0.20
2022-09-03T08:23:53.010Z,0.10
2022-09-03T08:24:45.999Z,0.20
2022-09-03T08:25:46.033Z,0.10
2022-09-03T08:26:51.441Z,0.10
2022-09-03T08:27:46.970Z,0.20
2022-09-03T08:28:45.971Z,0.20
2022-09-03T08:29:45.952Z,0.10
2022-09-03T08:30:45.956Z,0.20
2022-09-03T08:31:46.347Z,0.10
2022-09-03T08:32:46.038Z,0.20
2022-09-03T08:33:45.895Z,0.20
2022-09-03T08:34:45.903Z,0.10
2022-09-03T08:35:45.876Z,0.10
2022-09-03T08:36:46.303Z,0.10
2022-09-03T08:37:45.851Z,0.10
2022-09-03T08:38:45.844Z,0.10
2022-09-03T08:39:45.867Z,0.20
2022-09-03T08:40:52.833Z,0.20
2022-09-03T08:41:53.045Z,0.30
2022-09-03T08:42:53.801Z,0.20
2022-09-03T08:43:52.776Z,0.20
2022-09-03T08:44:45.747Z,0.30
2022-09-03T08:45:45.918Z,0.10
2022-09-03T08:46:46.099Z,0.10
2022-09-03T08:47:45.725Z,0.30
2022-09-03T08:48:45.709Z,0.20
2022-09-03T08:49:45.737Z,0.10
2022-09-03T08:50:45.841Z,0.10
2022-09-03T08:51:45.997Z,0.10
2022-09-03T08:52:45.653Z,0.20
2022-09-03T08:53:45.636Z,0.10
2022-09-03T08:54:45.633Z,0.30
2022-09-03T08:55:45.656Z,0.10
2022-09-03T08:56:46.033Z,0.10
2022-09-03T08:57:45.576Z,0.20
2022-09-03T08:58:45.573Z,0.10
2022-09-03T08:59:45.565Z,0.10
2022-09-03T09:00:45.554Z,0.20
2022-09-03T09:01:46.131Z,0.10
2022-09-03T09:02:45.575Z,0.10
2022-09-03T09:03:45.505Z,0.10
2022-09-03T09:04:45.505Z,0.10
2022-09-03T09:05:45.536Z,0.10
2022-09-03T09:06:45.787Z,0.20
2022-09-03T09:07:45.455Z,0.10
2022-09-03T09:08:45.450Z,0.10
2022-09-03T09:09:45.436Z,0.10
2022-09-03T09:10:45.474Z,0.30
2022-09-03T09:11:45.443Z,0.20
2022-09-03T09:12:46.951Z,0.10
2022-09-03T09:13:45.387Z,0.10
2022-09-03T09:14:45.376Z,0.10
2022-09-03T09:15:45.499Z,0.10
2022-09-03T09:16:45.778Z,0.20
2022-09-03T09:17:45.340Z,0.10
2022-09-03T09:18:45.315Z,0.10
2022-09-03T09:19:45.305Z,0.10
2022-09-03T09:20:45.297Z,0.10
2022-09-03T09:21:45.587Z,0.20
2022-09-03T09:22:47.313Z,0.20
2022-09-03T09:23:45.257Z,0.10
2022-09-03T09:24:45.243Z,0.10
2022-09-03T09:25:45.313Z,0.10
2022-09-03T09:26:45.323Z,0.90
2022-09-03T09:27:45.215Z,0.10
2022-09-03T09:28:45.192Z,0.10
2022-09-03T09:29:45.176Z,0.10
2022-09-03T09:30:45.173Z,0.20
2022-09-03T09:31:45.598Z,0.10
2022-09-03T09:32:45.162Z,0.10
2022-09-03T09:33:45.137Z,0.20
2022-09-03T09:34:49.872Z,0.10
2022-09-03T09:35:46.098Z,0.10
2022-09-03T09:36:45.132Z,0.10
2022-09-03T09:37:45.434Z,0.20
2022-09-03T09:38:45.063Z,0.20
2022-09-03T09:39:45.076Z,0.10
2022-09-03T09:40:45.541Z,0.20
2022-09-03T09:41:45.257Z,0.20
2022-09-03T09:42:45.012Z,0.10
2022-09-03T09:43:45.009Z,0.20
2022-09-03T09:44:45.003Z,0.20
2022-09-03T09:45:44.960Z,0.10
2022-09-03T09:46:45.517Z,0.40
2022-09-03T09:47:44.944Z,0.20
2022-09-03T09:48:45.632Z,0.20
2022-09-03T09:49:44.926Z,0.20
2022-09-03T09:50:44.935Z,0.10
2022-09-03T09:51:45.253Z,0.10
2022-09-03T09:52:44.874Z,0.20
2022-09-03T09:53:44.879Z,0.10
2022-09-03T09:54:44.858Z,0.10
2022-09-03T09:55:44.855Z,0.20
2022-09-03T09:56:44.836Z,0.20
2022-09-03T09:57:45.255Z,0.10
2022-09-03T09:58:44.804Z,0.10
2022-09-03T09:59:44.795Z,0.10
2022-09-03T10:00:44.789Z,0.10
2022-09-03T10:01:45.271Z,0.10
2022-09-03T10:02:44.819Z,0.30
2022-09-03T10:03:44.750Z,0.10
2022-09-03T10:04:44.733Z,0.20
2022-09-03T10:05:44.716Z,0.10
2022-09-03T10:06:44.702Z,0.20
2022-09-03T10:07:45.198Z,0.20
2022-09-03T10:08:44.679Z,0.10
2022-09-03T10:09:44.853Z,0.20
2022-09-03T10:10:44.666Z,0.10
2022-09-03T10:11:44.988Z,0.20
2022-09-03T10:12:44.637Z,0.20
2022-09-03T10:13:44.627Z,0.30
2022-09-03T10:14:44.596Z,0.20
2022-09-03T10:15:44.786Z,0.10
2022-09-03T10:16:44.949Z,0.10
2022-09-03T10:17:44.575Z,0.50
2022-09-03T10:18:44.561Z,0.20
2022-09-03T10:19:44.546Z,0.00
2022-09-03T10:20:44.545Z,0.10
2022-09-03T10:21:44.556Z,0.20
2022-09-03T10:22:48.351Z,0.10
2022-09-03T10:23:45.495Z,0.30
2022-09-03T10:24:44.476Z,0.20
2022-09-03T10:25:44.471Z,0.10
2022-09-03T10:26:44.619Z,0.10
2022-09-03T10:27:44.466Z,0.10
2022-09-03T10:28:44.437Z,0.10
2022-09-03T10:29:44.443Z,0.10
2022-09-03T10:30:44.473Z,0.10
2022-09-03T10:31:45.202Z,0.10
2022-09-03T10:32:48.325Z,0.20
2022-09-03T10:33:44.958Z,0.10
2022-09-03T10:34:44.437Z,0.10
2022-09-03T10:35:48.916Z,0.20
2022-09-03T10:36:45.528Z,0.20
2022-09-03T10:37:44.401Z,0.20
2022-09-03T10:38:44.530Z,0.20
2022-09-03T10:39:46.716Z,0.10
2022-09-03T10:40:44.267Z,0.20
2022-09-03T10:41:52.084Z,0.10
2022-09-03T10:42:44.245Z,0.30
2022-09-03T10:43:57.547Z,0.10
2022-09-03T10:44:51.218Z,0.10
2022-09-03T10:45:52.409Z,0.20
2022-09-03T10:46:52.308Z,0.20
2022-09-03T10:47:52.198Z,0.10
2022-09-03T10:48:51.183Z,0.10
2022-09-03T10:49:52.141Z,0.20
2022-09-03T10:50:52.171Z,0.20
2022-09-03T10:51:49.252Z,0.20
2022-09-03T10:52:45.130Z,0.80
2022-09-03T10:53:51.121Z,0.20
2022-09-03T10:54:44.091Z,0.20
2022-09-03T10:55:44.101Z,0.10
2022-09-03T10:56:44.063Z,0.20
2022-09-03T10:57:44.372Z,0.20
2022-09-03T10:58:44.045Z,0.10
2022-09-03T10:59:44.039Z,0.20
2022-09-03T11:00:44.014Z,0.10
2022-09-03T11:01:44.541Z,0.10
2022-09-03T11:02:44.080Z,0.20
2022-09-03T11:03:43.972Z,0.10
2022-09-03T11:04:43.986Z,0.20
2022-09-03T11:05:43.944Z,0.20
2022-09-03T11:06:44.042Z,0.10
2022-09-03T11:07:44.429Z,0.20
2022-09-03T11:08:44.021Z,0.20
2022-09-03T11:09:43.909Z,0.50
2022-09-03T11:10:50.896Z,0.20
2022-09-03T11:11:50.931Z,0.10
2022-09-03T11:12:53.053Z,0.10
2022-09-03T11:13:50.856Z,0.10
2022-09-03T11:14:51.855Z,0.10
2022-09-03T11:15:43.860Z,0.10
2022-09-03T11:16:50.850Z,0.10
2022-09-03T11:17:43.807Z,0.20
2022-09-03T11:18:50.774Z,0.10
2022-09-03T11:19:43.782Z,0.20
2022-09-03T11:20:43.776Z,0.20
2022-09-03T11:21:43.782Z,0.10
2022-09-03T11:22:43.745Z,0.20
2022-09-03T11:23:43.749Z,0.70
2022-09-03T11:24:43.753Z,0.10
2022-09-03T11:25:43.951Z,0.10
2022-09-03T11:26:44.104Z,0.20
2022-09-03T11:27:43.734Z,0.10
2022-09-03T11:28:43.654Z,0.20
2022-09-03T11:29:43.655Z,0.20
2022-09-03T11:30:43.667Z,0.20
2022-09-03T11:31:44.065Z,0.20
2022-09-03T11:32:43.642Z,0.20
2022-09-03T11:33:43.607Z,0.10
2022-09-03T11:34:43.582Z,0.20
2022-09-03T11:35:43.583Z,0.20
2022-09-03T11:36:47.787Z,0.10
2022-09-03T11:37:43.577Z,0.10
2022-09-03T11:38:43.532Z,0.10
2022-09-03T11:39:43.563Z,0.20
2022-09-03T11:40:43.504Z,0.10
2022-09-03T11:41:43.934Z,0.10
2022-09-03T11:42:43.485Z,0.20
2022-09-03T11:43:43.480Z,0.20
2022-09-03T11:44:51.019Z,0.20
2022-09-03T11:45:44.511Z,0.20
2022-09-03T11:46:43.771Z,0.50
2022-09-03T11:47:43.433Z,0.40
2022-09-03T11:48:43.414Z,0.10
2022-09-03T11:49:43.394Z,0.10
2022-09-03T11:50:43.384Z,0.30
2022-09-03T11:51:43.606Z,0.20
2022-09-03T11:52:43.367Z,0.40
2022-09-03T11:53:43.353Z,0.10
2022-09-03T11:54:43.334Z,0.10
2022-09-03T11:55:43.873Z,0.20
2022-09-03T11:56:43.322Z,0.40
2022-09-03T11:57:43.338Z,0.20
2022-09-03T11:58:43.293Z,0.10
2022-09-03T11:59:43.283Z,0.30
2022-09-03T12:00:43.288Z,1.10
2022-09-03T12:01:43.603Z,0.10
2022-09-03T12:02:43.280Z,0.10
2022-09-03T12:03:43.244Z,0.10
2022-09-03T12:04:43.273Z,0.20
2022-09-03T12:05:43.202Z,0.10
2022-09-03T12:06:43.173Z,0.20
2022-09-03T12:07:43.501Z,0.20
2022-09-03T12:08:43.153Z,0.10
2022-09-03T12:09:43.765Z,0.10
2022-09-03T12:10:43.131Z,0.10
2022-09-03T12:11:43.483Z,0.10
2022-09-03T12:12:43.093Z,0.10
2022-09-03T12:13:43.105Z,0.10
2022-09-03T12:14:43.082Z,0.10
2022-09-03T12:15:43.104Z,0.20
2022-09-03T12:16:43.093Z,0.20
2022-09-03T12:17:43.038Z,0.20
2022-09-03T12:18:43.024Z,0.20
2022-09-03T12:19:43.022Z,0.10
2022-09-03T12:20:43.013Z,0.10
2022-09-03T12:21:43.431Z,0.10
2022-09-03T12:22:42.997Z,0.10
2022-09-03T12:23:42.969Z,0.10
2022-09-03T12:24:42.952Z,0.10
2022-09-03T12:25:42.951Z,0.10
2022-09-03T12:26:42.923Z,0.10
2022-09-03T12:27:43.051Z,0.10
2022-09-03T12:28:44.411Z,0.50
2022-09-03T12:29:42.902Z,0.50
2022-09-03T12:30:42.914Z,0.20
2022-09-03T12:31:43.291Z,2.70
2022-09-03T12:32:42.859Z,4.00
2022-09-03T12:33:42.837Z,4.90
2022-09-03T12:34:42.845Z,5.80
2022-09-03T12:35:59.170Z,6.20
2022-09-03T12:36:44.251Z,7.90
2022-09-03T12:38:08.102Z,6.10
2022-09-03T12:39:07.993Z,13.50
2022-09-03T12:40:07.705Z,12.80
2022-09-03T12:41:43.837Z,20.40
2022-09-03T12:42:42.720Z,27.70
2022-09-03T12:43:47.612Z,19.40
2022-09-03T12:44:43.712Z,17.90
2022-09-03T12:46:10.424Z,15.60
2022-09-03T12:46:43.724Z,25.20
2022-09-03T12:47:42.688Z,29.20
2022-09-03T12:48:43.975Z,27.80
2022-09-03T12:49:42.763Z,28.80
2022-09-03T12:50:49.471Z,33.80
2022-09-03T12:51:49.255Z,29.00
2022-09-03T12:52:43.600Z,39.80
2022-09-03T12:53:42.979Z,42.70
2022-09-03T12:54:42.679Z,41.00
2022-09-03T12:55:42.645Z,36.80
2022-09-03T12:56:42.754Z,42.00
2022-09-03T12:57:43.828Z,43.00
2022-09-03T12:58:44.590Z,42.50
2022-09-03T12:59:50.800Z,58.60
2022-09-03T13:00:45.490Z,66.40
2022-09-03T13:01:43.766Z,70.90
2022-09-03T13:02:42.637Z,72.10
2022-09-03T13:03:43.418Z,67.10
2022-09-03T13:04:42.518Z,70.00
2022-09-03T13:05:43.070Z,63.50
2022-09-03T13:06:42.688Z,70.80
2022-09-03T13:07:44.677Z,64.00
2022-09-03T13:08:42.517Z,68.50
2022-09-03T13:09:42.405Z,69.30
2022-09-03T13:10:42.383Z,73.30
2022-09-03T13:11:42.696Z,65.30
2022-09-03T13:12:42.329Z,72.40
2022-09-03T13:13:42.356Z,70.50
2022-09-03T13:14:44.778Z,74.40
2022-09-03T13:15:42.317Z,67.00
2022-09-03T13:16:43.078Z,74.50